createdAt,value
2019-02-14T00:02:17.861Z,6.57
2019-02-14T00:05:06.105Z,6.50
2019-02-14T00:07:53.536Z,6.53
2019-02-14T00:10:41.054Z,6.53
2019-02-14T00:13:28.687Z,6.56
2019-02-14T00:16:16.109Z,6.51
2019-02-14T00:19:03.532Z,6.47
2019-02-14T00:21:51.017Z,6.42
2019-02-14T00:24:38.890Z,6.34
2019-02-14T00:27:26.621Z,6.36
2019-02-14T00:30:14.047Z,6.42
2019-02-14T00:33:01.778Z,6.41
2019-02-14T00:35:49.408Z,6.37
2019-02-14T00:38:37.558Z,6.31
2019-02-14T00:41:25.073Z,6.22
2019-02-14T00:44:13.011Z,6.13
2019-02-14T00:47:00.845Z,5.97
2019-02-14T00:49:48.268Z,5.94
2019-02-14T00:52:36.001Z,5.86
2019-02-14T00:55:23.734Z,5.90
2019-02-14T00:58:11.154Z,5.91
2019-02-14T01:00:58.477Z,5.73
2019-02-14T01:03:46.309Z,5.56
2019-02-14T01:06:33.629Z,5.39
2019-02-14T01:09:21.055Z,5.00
2019-02-14T01:12:09.202Z,5.08
2019-02-14T01:14:56.621Z,4.77
2019-02-14T01:17:43.840Z,5.17
2019-02-14T01:20:31.163Z,5.38
2019-02-14T01:23:18.380Z,5.55
2019-02-14T01:26:06.011Z,5.70
2019-02-14T01:28:53.497Z,5.75
2019-02-14T01:31:41.033Z,5.76
2019-02-14T01:34:28.998Z,5.57
2019-02-14T01:37:16.525Z,5.38
2019-02-14T01:40:05.281Z,5.60
2019-02-14T01:42:52.502Z,5.65
2019-02-14T01:45:40.294Z,5.72
2019-02-14T01:48:27.692Z,5.73
2019-02-14T01:51:14.773Z,5.75
2019-02-14T01:54:02.097Z,5.77
2019-02-14T01:56:49.701Z,5.61
2019-02-14T01:59:37.146Z,5.50
2019-02-14T02:02:24.366Z,5.47
2019-02-14T02:05:12.098Z,5.56
2019-02-14T02:07:59.833Z,5.55
2019-02-14T02:10:47.067Z,5.54
2019-02-14T02:13:34.467Z,5.51
2019-02-14T02:16:22.202Z,5.51
2019-02-14T02:19:09.422Z,5.43
2019-02-14T02:21:56.845Z,5.35
2019-02-14T02:24:44.270Z,5.41
2019-02-14T02:27:31.899Z,5.40
2019-02-14T02:30:19.219Z,5.43
2019-02-14T02:33:06.747Z,5.34
2019-02-14T02:36:00.327Z,5.37
2019-02-14T02:38:43.596Z,5.37
2019-02-14T02:41:30.862Z,5.39
2019-02-14T02:44:18.081Z,5.39
2019-02-14T02:47:06.226Z,5.36
2019-02-14T02:49:53.578Z,5.37
2019-02-14T02:52:41.073Z,5.32
2019-02-14T02:55:28.701Z,5.31
2019-02-14T02:58:15.921Z,5.32
2019-02-14T03:01:03.560Z,5.29
2019-02-14T03:03:50.869Z,5.18
2019-02-14T03:06:38.809Z,5.20
2019-02-14T03:09:26.230Z,5.23
2019-02-14T03:12:13.870Z,5.23
2019-02-14T03:15:00.977Z,5.16
2019-02-14T03:17:48.910Z,5.08
2019-02-14T03:20:36.230Z,5.00
2019-02-14T03:23:23.654Z,4.84
2019-02-14T03:26:10.879Z,4.89
2019-02-14T03:28:58.405Z,4.87
2019-02-14T03:31:46.138Z,4.85
2019-02-14T03:34:33.558Z,4.85
2019-02-14T03:37:21.289Z,4.87
2019-02-14T03:40:11.286Z,4.83
2019-02-14T03:42:59.211Z,4.80
2019-02-14T03:45:46.664Z,4.82
2019-02-14T03:48:34.520Z,4.89
2019-02-14T03:51:22.026Z,4.88
2019-02-14T03:54:09.214Z,4.87
2019-02-14T03:56:56.974Z,4.89
2019-02-14T03:59:44.572Z,4.79
2019-02-14T04:02:32.451Z,4.74
2019-02-14T04:05:20.246Z,4.79
2019-02-14T04:08:07.767Z,4.78
2019-02-14T04:10:56.550Z,4.82
2019-02-14T04:13:43.843Z,4.79
2019-02-14T04:16:31.470Z,4.79
2019-02-14T04:19:18.997Z,4.80
2019-02-14T04:22:06.115Z,4.84
2019-02-14T04:24:53.435Z,4.81
2019-02-14T04:27:41.473Z,4.74
2019-02-14T04:30:29.412Z,4.74
2019-02-14T04:33:17.452Z,4.71
2019-02-14T04:36:05.182Z,4.67
2019-02-14T04:38:52.604Z,4.66
2019-02-14T04:41:40.231Z,4.66
2019-02-14T04:44:27.303Z,4.64
2019-02-14T04:47:14.875Z,4.66
2019-02-14T04:50:02.508Z,4.58
2019-02-14T04:52:50.442Z,4.56
2019-02-14T04:55:39.164Z,4.46
2019-02-14T04:58:26.609Z,4.36
2019-02-14T05:01:14.046Z,4.35
2019-02-14T05:04:01.985Z,4.37
2019-02-14T05:06:49.611Z,4.43
2019-02-14T05:09:37.140Z,4.44
2019-02-14T05:12:26.211Z,4.44
2019-02-14T05:15:13.935Z,4.38
2019-02-14T05:18:01.384Z,4.44
2019-02-14T05:20:49.393Z,4.42
2019-02-14T05:23:36.509Z,4.31
2019-02-14T05:26:23.831Z,4.34
2019-02-14T05:29:11.051Z,4.39
2019-02-14T05:31:58.476Z,4.38
2019-02-14T05:34:45.693Z,4.42
2019-02-14T05:37:33.323Z,4.37
2019-02-14T05:40:20.544Z,4.41
2019-02-14T05:43:08.585Z,4.43
2019-02-14T05:46:15.384Z,4.39
2019-02-14T05:49:03.009Z,4.34
2019-02-14T05:51:50.742Z,4.39
2019-02-14T05:54:38.062Z,4.37
2019-02-14T05:57:27.362Z,4.36
2019-02-14T06:00:19.680Z,4.31
2019-02-14T06:03:07.299Z,4.38
2019-02-14T06:05:54.338Z,4.39
2019-02-14T06:08:42.044Z,4.42
2019-02-14T06:11:29.675Z,4.44
2019-02-14T06:14:17.094Z,4.42
2019-02-14T06:17:04.518Z,4.40
2019-02-14T06:19:51.947Z,4.38
2019-02-14T06:22:39.776Z,4.37
2019-02-14T06:25:27.202Z,4.36
2019-02-14T06:28:15.067Z,4.38
2019-02-14T06:31:04.611Z,4.32
2019-02-14T06:33:52.239Z,4.21
2019-02-14T06:36:39.969Z,4.16
2019-02-14T06:39:27.333Z,4.18
2019-02-14T06:42:14.921Z,4.18
2019-02-14T06:45:02.555Z,4.15
2019-02-14T06:47:50.177Z,3.91
2019-02-14T06:50:37.924Z,3.18
2019-02-14T06:53:25.844Z,3.13
2019-02-14T06:56:13.171Z,3.48
2019-02-14T06:59:00.800Z,3.67
2019-02-14T07:01:48.117Z,3.80
2019-02-14T07:04:35.750Z,3.86
2019-02-14T07:07:23.596Z,3.91
2019-02-14T07:10:12.406Z,3.95
2019-02-14T07:12:59.557Z,3.99
2019-02-14T07:15:47.079Z,4.07
2019-02-14T07:18:34.200Z,4.11
2019-02-14T07:21:23.468Z,4.13
2019-02-14T07:24:10.990Z,4.05
2019-02-14T07:27:00.194Z,4.10
2019-02-14T07:29:47.681Z,4.21
2019-02-14T07:32:34.592Z,4.24
2019-02-14T07:35:22.531Z,4.30
2019-02-14T07:38:09.951Z,4.34
2019-02-14T07:40:57.582Z,4.39
2019-02-14T07:43:46.175Z,4.43
2019-02-14T07:46:33.556Z,4.46
2019-02-14T07:49:20.879Z,4.53
2019-02-14T07:52:08.307Z,4.57
2019-02-14T07:54:55.763Z,4.62
2019-02-14T07:57:43.304Z,4.69
2019-02-14T08:00:31.085Z,4.73
2019-02-14T08:03:18.509Z,4.79
2019-02-14T08:06:06.449Z,4.82
2019-02-14T08:08:54.281Z,4.88
2019-02-14T08:11:41.399Z,4.84
2019-02-14T08:14:28.617Z,4.99
2019-02-14T08:17:16.661Z,5.13
2019-02-14T08:20:06.467Z,5.21
2019-02-14T08:22:53.964Z,5.29
2019-02-14T08:25:41.793Z,5.34
2019-02-14T08:28:29.228Z,5.41
2019-02-14T08:31:16.451Z,5.50
2019-02-14T08:34:03.815Z,5.57
2019-02-14T08:36:51.270Z,5.60
2019-02-14T08:39:38.819Z,5.58
2019-02-14T08:42:26.247Z,5.39
2019-02-14T08:45:13.966Z,5.43
2019-02-14T08:48:01.596Z,5.57
2019-02-14T08:50:48.956Z,5.68
2019-02-14T08:53:36.038Z,5.66
2019-02-14T08:56:23.566Z,5.66
2019-02-14T08:59:10.986Z,5.79
2019-02-14T09:01:58.510Z,5.79
2019-02-14T09:04:46.039Z,5.44
2019-02-14T09:07:33.426Z,4.97
2019-02-14T09:10:21.295Z,5.30
2019-02-14T09:13:17.012Z,5.74
2019-02-14T09:15:59.316Z,5.92
2019-02-14T09:18:46.948Z,6.01
2019-02-14T09:21:34.434Z,6.24
2019-02-14T09:24:23.136Z,6.31
2019-02-14T09:27:10.447Z,6.35
2019-02-14T09:29:57.925Z,6.52
2019-02-14T09:32:45.518Z,6.62
2019-02-14T09:35:32.718Z,6.24
2019-02-14T09:38:20.054Z,6.28
2019-02-14T09:41:07.775Z,6.47
2019-02-14T09:43:56.392Z,6.76
2019-02-14T09:46:44.034Z,6.89
2019-02-14T09:49:31.123Z,7.17
2019-02-14T09:52:18.461Z,7.58
2019-02-14T09:55:07.968Z,8.03
2019-02-14T09:57:55.174Z,8.15
2019-02-14T10:00:42.573Z,7.82
2019-02-14T10:03:30.338Z,7.95
2019-02-14T10:06:17.728Z,8.53
2019-02-14T10:09:07.623Z,4.26
2019-02-14T10:11:54.867Z,9.12
2019-02-14T10:14:42.843Z,7.68
2019-02-14T10:17:30.409Z,9.23
2019-02-14T10:20:18.706Z,9.67
2019-02-14T10:23:06.325Z,9.97
2019-02-14T10:25:55.174Z,6.05
2019-02-14T10:28:42.419Z,10.67
2019-02-14T10:31:29.506Z,10.23
2019-02-14T10:34:16.805Z,10.42
2019-02-14T10:37:04.297Z,10.87
2019-02-14T10:39:51.672Z,11.17
2019-02-14T10:42:39.107Z,11.52
2019-02-14T10:45:26.350Z,11.61
2019-02-14T10:48:13.350Z,11.44
2019-02-14T10:51:00.651Z,11.41
2019-02-14T10:53:47.699Z,11.44
2019-02-14T10:56:35.038Z,11.46
2019-02-14T10:59:22.231Z,11.48
2019-02-14T11:02:10.305Z,11.51
2019-02-14T11:04:58.029Z,11.40
2019-02-14T11:07:45.138Z,11.42
2019-02-14T11:10:32.402Z,11.41
2019-02-14T11:13:19.758Z,11.43
2019-02-14T11:16:09.630Z,11.50
2019-02-14T11:18:56.692Z,11.44
2019-02-14T11:21:43.949Z,11.43
2019-02-14T11:24:31.271Z,10.99
2019-02-14T11:27:18.399Z,10.87
2019-02-14T11:30:09.376Z,11.10
2019-02-14T11:32:56.624Z,11.28
2019-02-14T11:35:43.897Z,11.33
2019-02-14T11:38:40.121Z,11.35
2019-02-14T11:41:20.004Z,11.16
2019-02-14T11:44:07.069Z,11.12
2019-02-14T11:46:54.459Z,11.17
2019-02-14T11:49:41.777Z,5.84
2019-02-14T11:52:29.166Z,11.25
2019-02-14T11:55:16.893Z,11.26
2019-02-14T11:58:04.464Z,11.10
2019-02-14T12:00:51.898Z,11.14
2019-02-14T12:03:39.614Z,11.20
2019-02-14T12:06:26.958Z,11.11
2019-02-14T12:09:14.190Z,11.27
2019-02-14T12:12:01.313Z,11.56
2019-02-14T12:14:48.821Z,11.69
2019-02-14T12:17:36.484Z,11.74
2019-02-14T12:20:23.751Z,11.89
2019-02-14T12:23:11.222Z,12.12
2019-02-14T12:26:00.266Z,12.36
2019-02-14T12:28:48.195Z,12.69
2019-02-14T12:31:35.630Z,12.95
2019-02-14T12:34:22.914Z,13.19
2019-02-14T12:37:10.325Z,13.41
2019-02-14T12:39:57.660Z,13.51
2019-02-14T12:42:45.349Z,13.56
2019-02-14T12:45:32.681Z,13.69
2019-02-14T12:48:20.070Z,13.90
2019-02-14T12:51:07.293Z,14.13
2019-02-14T12:53:54.838Z,14.27
2019-02-14T12:56:42.544Z,14.43
2019-02-14T12:59:29.965Z,14.56
2019-02-14T13:02:17.190Z,14.68
2019-02-14T13:05:05.902Z,14.85
2019-02-14T13:07:53.625Z,14.89
2019-02-14T13:10:41.127Z,14.95
2019-02-14T13:13:28.624Z,15.05
2019-02-14T13:16:16.257Z,15.08
2019-02-14T13:19:04.188Z,15.02
2019-02-14T13:21:51.814Z,15.18
2019-02-14T13:24:39.341Z,15.28
2019-02-14T13:27:27.075Z,15.42
2019-02-14T13:30:17.527Z,15.62
2019-02-14T13:33:04.589Z,15.57
2019-02-14T13:35:52.318Z,15.43
2019-02-14T13:38:39.844Z,15.51
2019-02-14T13:41:31.362Z,15.66
2019-02-14T13:44:17.758Z,15.66
2019-02-14T13:47:05.393Z,15.85
2019-02-14T13:49:52.927Z,15.91
2019-02-14T13:52:40.403Z,16.03
2019-02-14T13:55:28.432Z,16.28
2019-02-14T13:58:16.012Z,16.28
2019-02-14T14:01:03.644Z,16.30
2019-02-14T14:03:51.270Z,16.27
2019-02-14T14:06:38.699Z,16.24
2019-02-14T14:09:26.523Z,16.34
2019-02-14T14:12:14.056Z,16.47
2019-02-14T14:15:01.679Z,16.48
2019-02-14T14:17:49.002Z,16.52
2019-02-14T14:20:37.182Z,16.52
2019-02-14T14:23:24.798Z,16.50
2019-02-14T14:26:12.195Z,16.36
2019-02-14T14:28:59.932Z,16.28
2019-02-14T14:31:47.771Z,16.26
2019-02-14T14:34:35.827Z,16.20
2019-02-14T14:37:23.330Z,16.18
2019-02-14T14:40:15.742Z,16.10
2019-02-14T14:43:16.819Z,16.26
2019-02-14T14:46:06.488Z,16.22
2019-02-14T14:48:54.326Z,16.06
2019-02-14T14:51:41.744Z,15.97
2019-02-14T14:54:29.171Z,15.97
2019-02-14T14:57:16.796Z,16.03
2019-02-14T15:00:04.992Z,16.08
2019-02-14T15:02:52.469Z,16.16
2019-02-14T15:05:39.483Z,16.16
2019-02-14T15:08:26.908Z,16.22
2019-02-14T15:11:14.433Z,16.23
2019-02-14T15:14:02.164Z,16.03
2019-02-14T15:16:49.585Z,16.06
2019-02-14T15:19:37.125Z,16.00
2019-02-14T15:22:24.648Z,16.00
2019-02-14T15:25:11.859Z,15.86
2019-02-14T15:28:00.001Z,15.80
2019-02-14T15:30:47.115Z,15.42
2019-02-14T15:33:34.949Z,15.49
2019-02-14T15:36:24.333Z,15.36
2019-02-14T15:39:11.442Z,15.22
2019-02-14T15:41:58.863Z,15.13
2019-02-14T15:44:46.397Z,15.05
2019-02-14T15:47:33.916Z,15.07
2019-02-14T15:50:21.752Z,15.03
2019-02-14T15:53:09.276Z,14.88
2019-02-14T15:55:56.805Z,14.84
2019-02-14T15:58:44.431Z,14.82
2019-02-14T16:01:31.963Z,14.78
2019-02-14T16:04:20.814Z,14.73
2019-02-14T16:07:07.828Z,14.65
2019-02-14T16:09:55.463Z,14.55
2019-02-14T16:12:45.318Z,14.44
2019-02-14T16:15:33.730Z,14.33
2019-02-14T16:18:23.211Z,14.17
2019-02-14T16:21:10.790Z,13.97
2019-02-14T16:23:58.727Z,13.80
2019-02-14T16:26:46.048Z,13.54
2019-02-14T16:29:33.813Z,13.33
2019-02-14T16:32:21.468Z,13.16
2019-02-14T16:35:09.446Z,13.03
2019-02-14T16:37:57.071Z,12.91
2019-02-14T16:40:44.598Z,12.81
2019-02-14T16:43:32.135Z,12.67
2019-02-14T16:46:19.560Z,12.51
2019-02-14T16:49:07.088Z,12.36
2019-02-14T16:51:54.612Z,12.25
2019-02-14T16:54:42.233Z,12.11
2019-02-14T16:57:29.817Z,11.92
2019-02-14T17:00:19.008Z,11.78
2019-02-14T17:03:06.655Z,11.65
2019-02-14T17:05:54.604Z,11.54
2019-02-14T17:08:42.052Z,11.46
2019-02-14T17:11:29.752Z,11.37
2019-02-14T17:14:17.177Z,11.29
2019-02-14T17:17:04.904Z,11.16
2019-02-14T17:19:52.427Z,11.01
2019-02-14T17:22:40.163Z,10.82
2019-02-14T17:25:27.277Z,10.66
2019-02-14T17:28:14.705Z,10.56
2019-02-14T17:31:01.934Z,10.48
2019-02-14T17:33:49.758Z,10.37
2019-02-14T17:36:37.080Z,10.29
2019-02-14T17:39:24.705Z,10.25
2019-02-14T17:42:12.232Z,10.12
2019-02-14T17:45:00.327Z,9.98
2019-02-14T17:47:47.389Z,9.87
2019-02-14T17:50:35.118Z,9.82
2019-02-14T17:53:22.659Z,9.79
2019-02-14T17:56:09.967Z,9.75
2019-02-14T17:58:57.292Z,9.69
2019-02-14T18:01:44.714Z,9.64
2019-02-14T18:04:32.143Z,9.57
2019-02-14T18:07:19.974Z,9.54
2019-02-14T18:10:12.003Z,9.48
2019-02-14T18:12:59.327Z,9.38
2019-02-14T18:15:46.548Z,9.33
2019-02-14T18:18:34.172Z,8.58
2019-02-14T18:21:21.812Z,9.38
2019-02-14T18:24:08.919Z,9.36
2019-02-14T18:26:56.752Z,9.26
2019-02-14T18:29:44.076Z,9.17
2019-02-14T18:32:31.907Z,9.16
2019-02-14T18:35:19.127Z,9.20
2019-02-14T18:38:06.651Z,9.19
2019-02-14T18:40:54.580Z,9.18
2019-02-14T18:43:42.118Z,9.11
2019-02-14T18:46:29.801Z,9.07
2019-02-14T18:49:17.273Z,9.05
2019-02-14T18:52:05.001Z,9.00
2019-02-14T18:54:52.634Z,8.93
2019-02-14T18:57:40.158Z,8.91
2019-02-14T19:00:28.096Z,8.85
2019-02-14T19:03:15.330Z,8.76
2019-02-14T19:06:02.869Z,8.71
2019-02-14T19:08:50.474Z,8.66
2019-02-14T19:11:37.899Z,8.57
2019-02-14T19:14:25.732Z,8.49
2019-02-14T19:17:13.154Z,8.42
2019-02-14T19:20:00.370Z,8.35
2019-02-14T19:22:48.101Z,8.30
2019-02-14T19:25:35.703Z,8.23
2019-02-14T19:28:23.264Z,8.13
2019-02-14T19:31:10.991Z,8.04
2019-02-14T19:33:58.211Z,7.92
2019-02-14T19:36:45.644Z,7.88
2019-02-14T19:39:33.165Z,7.84
2019-02-14T19:42:20.686Z,7.70
2019-02-14T19:45:10.464Z,7.62
2019-02-14T19:47:57.992Z,7.58
2019-02-14T19:50:45.825Z,7.56
2019-02-14T19:53:33.149Z,7.53
2019-02-14T19:56:20.777Z,7.41
2019-02-14T19:59:08.508Z,7.36
2019-02-14T20:01:56.150Z,7.27
2019-02-14T20:04:43.711Z,7.19
2019-02-14T20:07:31.086Z,7.19
2019-02-14T20:10:18.614Z,7.17
2019-02-14T20:13:06.452Z,7.15
2019-02-14T20:15:54.485Z,7.08
2019-02-14T20:18:42.023Z,6.99
2019-02-14T20:21:29.647Z,6.95
2019-02-14T20:24:16.832Z,6.92
2019-02-14T20:27:04.390Z,6.90
2019-02-14T20:29:51.813Z,6.90
2019-02-14T20:32:39.542Z,6.76
2019-02-14T20:35:27.591Z,6.68
2019-02-14T20:38:14.917Z,6.61
2019-02-14T20:41:02.429Z,6.69
2019-02-14T20:43:50.468Z,6.72
2019-02-14T20:46:38.214Z,6.71
2019-02-14T20:49:25.763Z,6.69
2019-02-14T20:52:12.917Z,6.68
2019-02-14T20:55:25.790Z,6.59
2019-02-14T20:58:12.930Z,6.54
2019-02-14T21:01:00.543Z,6.59
2019-02-14T21:03:47.966Z,6.59
2019-02-14T21:06:35.387Z,6.60
2019-02-14T21:09:23.008Z,6.57
2019-02-14T21:12:10.437Z,6.51
2019-02-14T21:14:58.370Z,6.48
2019-02-14T21:17:46.101Z,6.45
2019-02-14T21:20:33.626Z,6.42
2019-02-14T21:23:20.758Z,6.37
2019-02-14T21:26:07.971Z,6.35
2019-02-14T21:28:55.822Z,6.29
2019-02-14T21:31:43.121Z,6.18
2019-02-14T21:34:30.861Z,6.06
2019-02-14T21:37:18.076Z,6.02
2019-02-14T21:40:09.307Z,6.01
2019-02-14T21:42:56.720Z,5.99
2019-02-14T21:45:44.715Z,5.97
2019-02-14T21:48:32.286Z,5.93
2019-02-14T21:51:20.072Z,5.88
2019-02-14T21:54:07.025Z,5.85
2019-02-14T21:56:55.067Z,5.88
2019-02-14T21:59:42.689Z,5.82
2019-02-14T22:02:30.537Z,5.80
2019-02-14T22:05:23.908Z,5.77
2019-02-14T22:08:07.523Z,5.74
2019-02-14T22:10:55.014Z,5.69
2019-02-14T22:13:42.594Z,5.65
2019-02-14T22:16:29.883Z,5.61
2019-02-14T22:19:17.213Z,5.61
2019-02-14T22:22:05.048Z,5.60
2019-02-14T22:24:52.779Z,5.52
2019-02-14T22:27:40.513Z,5.50
2019-02-14T22:30:27.936Z,5.49
2019-02-14T22:33:15.460Z,5.51
2019-02-14T22:36:02.577Z,5.51
2019-02-14T22:38:50.412Z,5.51
2019-02-14T22:41:38.244Z,5.48
2019-02-14T22:44:26.078Z,5.46
2019-02-14T22:47:13.301Z,5.49
2019-02-14T22:50:00.925Z,5.46
2019-02-14T22:52:48.249Z,5.44
2019-02-14T22:55:35.570Z,5.43
2019-02-14T22:58:22.993Z,5.41
2019-02-14T23:01:11.330Z,5.40
2019-02-14T23:03:59.019Z,5.39
2019-02-14T23:06:46.811Z,5.39
2019-02-14T23:09:33.922Z,5.37
2019-02-14T23:12:21.037Z,5.32
2019-02-14T23:15:09.177Z,5.29
2019-02-14T23:17:56.712Z,5.25
2019-02-14T23:20:44.433Z,5.19
2019-02-14T23:23:31.963Z,5.20
2019-02-14T23:26:19.487Z,5.21
2019-02-14T23:29:06.711Z,5.19
2019-02-14T23:31:54.438Z,5.19
2019-02-14T23:34:42.274Z,5.14
2019-02-14T23:37:29.800Z,5.16
2019-02-14T23:40:17.534Z,5.18
2019-02-14T23:43:07.304Z,5.19
2019-02-14T23:45:54.425Z,5.21
2019-02-14T23:48:41.545Z,5.20
2019-02-14T23:51:29.279Z,5.18
2019-02-14T23:54:16.299Z,5.16
2019-02-14T23:57:04.222Z,5.14
2019-02-14T23:59:52.158Z,5.12
